sensor_id;sensor_type;location;lat;lon;timestamp;P1;durP1;ratioP1;P2;durP2;ratioP2
36551;SDS011;22559;54.176;12.102;2022-10-26T00:02:18;16.37;;;9.43;;
36551;SDS011;22559;54.176;12.102;2022-10-26T00:04:43;17.43;;;10.87;;
36551;SDS011;22559;54.176;12.102;2022-10-26T00:07:09;16.80;;;9.80;;
36551;SDS011;22559;54.176;12.102;2022-10-26T00:09:35;20.57;;;10.00;;
36551;SDS011;22559;54.176;12.102;2022-10-26T00:12:01;17.17;;;9.73;;
36551;SDS011;22559;54.176;12.102;2022-10-26T00:14:27;16.40;;;9.63;;
36551;SDS011;22559;54.176;12.102;2022-10-26T00:16:53;15.03;;;10.13;;
36551;SDS011;22559;54.176;12.102;2022-10-26T00:19:19;16.70;;;9.83;;
36551;SDS011;22559;54.176;12.102;2022-10-26T00:21:44;14.90;;;9.80;;
36551;SDS011;22559;54.176;12.102;2022-10-26T00:24:10;16.53;;;9.50;;
36551;SDS011;22559;54.176;12.102;2022-10-26T00:26:36;17.60;;;10.47;;
36551;SDS011;22559;54.176;12.102;2022-10-26T00:29:02;16.87;;;10.47;;
36551;SDS011;22559;54.176;12.102;2022-10-26T00:31:28;17.33;;;9.90;;
36551;SDS011;22559;54.176;12.102;2022-10-26T00:33:54;13.90;;;9.57;;
36551;SDS011;22559;54.176;12.102;2022-10-26T00:36:20;19.13;;;10.13;;
36551;SDS011;22559;54.176;12.102;2022-10-26T00:38:51;13.97;;;10.00;;
36551;SDS011;22559;54.176;12.102;2022-10-26T00:41:20;19.23;;;10.10;;
36551;SDS011;22559;54.176;12.102;2022-10-26T00:43:47;17.27;;;10.30;;
36551;SDS011;22559;54.176;12.102;2022-10-26T00:46:21;19.13;;;10.43;;
36551;SDS011;22559;54.176;12.102;2022-10-26T00:48:54;17.47;;;9.47;;
36551;SDS011;22559;54.176;12.102;2022-10-26T00:51:26;17.20;;;10.00;;
36551;SDS011;22559;54.176;12.102;2022-10-26T00:54:01;15.20;;;10.07;;
36551;SDS011;22559;54.176;12.102;2022-10-26T00:56:29;16.93;;;9.67;;
36551;SDS011;22559;54.176;12.102;2022-10-26T00:58:59;18.83;;;10.03;;
36551;SDS011;22559;54.176;12.102;2022-10-26T01:01:30;17.83;;;10.67;;
36551;SDS011;22559;54.176;12.102;2022-10-26T01:03:58;18.80;;;10.10;;
36551;SDS011;22559;54.176;12.102;2022-10-26T01:06:25;19.70;;;9.90;;
36551;SDS011;22559;54.176;12.102;2022-10-26T01:08:52;15.97;;;10.10;;
36551;SDS011;22559;54.176;12.102;2022-10-26T01:11:18;16.97;;;9.97;;
36551;SDS011;22559;54.176;12.102;2022-10-26T01:13:44;17.00;;;10.53;;
36551;SDS011;22559;54.176;12.102;2022-10-26T01:18:46;17.47;;;9.83;;
36551;SDS011;22559;54.176;12.102;2022-10-26T01:32:29;19.43;;;9.93;;
36551;SDS011;22559;54.176;12.102;2022-10-26T01:35:08;19.67;;;10.40;;
36551;SDS011;22559;54.176;12.102;2022-10-26T01:41:02;18.33;;;10.37;;
36551;SDS011;22559;54.176;12.102;2022-10-26T01:43:41;18.83;;;10.13;;
36551;SDS011;22559;54.176;12.102;2022-10-26T01:46:10;15.47;;;9.23;;
36551;SDS011;22559;54.176;12.102;2022-10-26T01:48:38;15.97;;;10.10;;
36551;SDS011;22559;54.176;12.102;2022-10-26T01:51:05;15.27;;;9.73;;
36551;SDS011;22559;54.176;12.102;2022-10-26T01:53:33;16.23;;;10.07;;
36551;SDS011;22559;54.176;12.102;2022-10-26T01:55:58;16.77;;;10.20;;
36551;SDS011;22559;54.176;12.102;2022-10-26T02:09:27;19.20;;;10.43;;
36551;SDS011;22559;54.176;12.102;2022-10-26T02:15:16;15.87;;;9.20;;
36551;SDS011;22559;54.176;12.102;2022-10-26T02:20:24;18.60;;;10.67;;
36551;SDS011;22559;54.176;12.102;2022-10-26T02:22:55;14.77;;;9.47;;
36551;SDS011;22559;54.176;12.102;2022-10-26T02:25:26;17.23;;;10.37;;
36551;SDS011;22559;54.176;12.102;2022-10-26T02:27:55;19.63;;;9.90;;
36551;SDS011;22559;54.176;12.102;2022-10-26T02:30:25;19.90;;;10.70;;
36551;SDS011;22559;54.176;12.102;2022-10-26T02:32:52;14.83;;;10.07;;
36551;SDS011;22559;54.176;12.102;2022-10-26T02:35:21;17.93;;;10.67;;
36551;SDS011;22559;54.176;12.102;2022-10-26T02:37:50;15.83;;;10.30;;
36551;SDS011;22559;54.176;12.102;2022-10-26T02:40:18;23.23;;;11.03;;
36551;SDS011;22559;54.176;12.102;2022-10-26T02:42:48;18.53;;;11.23;;
36551;SDS011;22559;54.176;12.102;2022-10-26T02:45:16;20.87;;;11.17;;
36551;SDS011;22559;54.176;12.102;2022-10-26T02:47:46;20.90;;;11.97;;
36551;SDS011;22559;54.176;12.102;2022-10-26T02:50:11;21.20;;;11.03;;
36551;SDS011;22559;54.176;12.102;2022-10-26T02:52:44;17.30;;;10.70;;
36551;SDS011;22559;54.176;12.102;2022-10-26T02:55:22;18.17;;;10.93;;
36551;SDS011;22559;54.176;12.102;2022-10-26T02:57:53;21.17;;;11.23;;
36551;SDS011;22559;54.176;12.102;2022-10-26T03:00:23;17.53;;;11.10;;
36551;SDS011;22559;54.176;12.102;2022-10-26T03:02:52;20.93;;;11.27;;
36551;SDS011;22559;54.176;12.102;2022-10-26T03:05:27;23.30;;;11.40;;
36551;SDS011;22559;54.176;12.102;2022-10-26T03:07:56;17.73;;;11.10;;
36551;SDS011;22559;54.176;12.102;2022-10-26T03:10:22;18.47;;;10.23;;
36551;SDS011;22559;54.176;12.102;2022-10-26T03:12:48;21.20;;;12.13;;
36551;SDS011;22559;54.176;12.102;2022-10-26T03:15:14;23.23;;;10.97;;
36551;SDS011;22559;54.176;12.102;2022-10-26T03:17:40;18.37;;;11.70;;
36551;SDS011;22559;54.176;12.102;2022-10-26T03:20:06;17.03;;;11.07;;
36551;SDS011;22559;54.176;12.102;2022-10-26T03:22:32;18.53;;;11.90;;
36551;SDS011;22559;54.176;12.102;2022-10-26T03:24:58;19.13;;;10.87;;
36551;SDS011;22559;54.176;12.102;2022-10-26T03:27:24;24.33;;;11.37;;
36551;SDS011;22559;54.176;12.102;2022-10-26T03:29:50;20.57;;;11.37;;
36551;SDS011;22559;54.176;12.102;2022-10-26T03:32:16;18.10;;;11.27;;
36551;SDS011;22559;54.176;12.102;2022-10-26T03:34:42;27.20;;;12.23;;
36551;SDS011;22559;54.176;12.102;2022-10-26T03:37:08;21.37;;;12.03;;
36551;SDS011;22559;54.176;12.102;2022-10-26T03:39:34;22.47;;;11.93;;
36551;SDS011;22559;54.176;12.102;2022-10-26T03:41:59;19.57;;;10.87;;
36551;SDS011;22559;54.176;12.102;2022-10-26T03:44:25;20.57;;;11.10;;
36551;SDS011;22559;54.176;12.102;2022-10-26T03:46:50;20.63;;;11.77;;
36551;SDS011;22559;54.176;12.102;2022-10-26T03:49:16;23.40;;;12.43;;
36551;SDS011;22559;54.176;12.102;2022-10-26T03:51:41;20.77;;;12.40;;
36551;SDS011;22559;54.176;12.102;2022-10-26T03:54:07;21.77;;;11.60;;
36551;SDS011;22559;54.176;12.102;2022-10-26T03:56:33;23.27;;;11.93;;
36551;SDS011;22559;54.176;12.102;2022-10-26T03:58:58;19.30;;;11.13;;
36551;SDS011;22559;54.176;12.102;2022-10-26T04:01:24;15.97;;;10.10;;
36551;SDS011;22559;54.176;12.102;2022-10-26T04:03:49;19.23;;;11.13;;
36551;SDS011;22559;54.176;12.102;2022-10-26T04:06:15;25.03;;;11.47;;
36551;SDS011;22559;54.176;12.102;2022-10-26T04:08:41;17.80;;;11.27;;
36551;SDS011;22559;54.176;12.102;2022-10-26T04:11:06;17.60;;;10.67;;
36551;SDS011;22559;54.176;12.102;2022-10-26T04:13:32;20.33;;;10.50;;
36551;SDS011;22559;54.176;12.102;2022-10-26T04:15:57;17.40;;;10.27;;
36551;SDS011;22559;54.176;12.102;2022-10-26T04:18:23;15.93;;;10.33;;
36551;SDS011;22559;54.176;12.102;2022-10-26T04:20:49;17.20;;;10.20;;
36551;SDS011;22559;54.176;12.102;2022-10-26T04:23:15;15.07;;;9.50;;
36551;SDS011;22559;54.176;12.102;2022-10-26T04:25:42;14.20;;;10.27;;
36551;SDS011;22559;54.176;12.102;2022-10-26T04:28:09;16.53;;;9.90;;
36551;SDS011;22559;54.176;12.102;2022-10-26T04:30:36;17.43;;;10.13;;
36551;SDS011;22559;54.176;12.102;2022-10-26T04:33:03;19.77;;;10.57;;
36551;SDS011;22559;54.176;12.102;2022-10-26T04:35:29;15.70;;;10.20;;
36551;SDS011;22559;54.176;12.102;2022-10-26T04:37:56;16.13;;;10.53;;
36551;SDS011;22559;54.176;12.102;2022-10-26T04:40:25;18.33;;;9.87;;
36551;SDS011;22559;54.176;12.102;2022-10-26T04:42:52;15.77;;;10.20;;
36551;SDS011;22559;54.176;12.102;2022-10-26T04:45:18;18.87;;;10.13;;
36551;SDS011;22559;54.176;12.102;2022-10-26T04:47:43;16.87;;;9.60;;
36551;SDS011;22559;54.176;12.102;2022-10-26T04:50:10;15.90;;;9.67;;
36551;SDS011;22559;54.176;12.102;2022-10-26T04:52:36;17.60;;;9.83;;
36551;SDS011;22559;54.176;12.102;2022-10-26T04:55:02;15.73;;;9.63;;
36551;SDS011;22559;54.176;12.102;2022-10-26T04:57:30;22.43;;;11.83;;
36551;SDS011;22559;54.176;12.102;2022-10-26T04:59:59;15.57;;;10.17;;
36551;SDS011;22559;54.176;12.102;2022-10-26T05:02:26;17.87;;;10.40;;
36551;SDS011;22559;54.176;12.102;2022-10-26T05:04:52;19.27;;;11.93;;
36551;SDS011;22559;54.176;12.102;2022-10-26T05:07:18;19.40;;;10.47;;
36551;SDS011;22559;54.176;12.102;2022-10-26T05:09:43;16.80;;;10.40;;
36551;SDS011;22559;54.176;12.102;2022-10-26T05:12:09;14.63;;;10.37;;
36551;SDS011;22559;54.176;12.102;2022-10-26T05:14:35;17.67;;;9.60;;
36551;SDS011;22559;54.176;12.102;2022-10-26T05:17:00;19.60;;;10.53;;
36551;SDS011;22559;54.176;12.102;2022-10-26T05:19:26;18.83;;;10.53;;
36551;SDS011;22559;54.176;12.102;2022-10-26T05:21:51;15.27;;;10.37;;
36551;SDS011;22559;54.176;12.102;2022-10-26T05:24:17;20.47;;;10.10;;
36551;SDS011;22559;54.176;12.102;2022-10-26T05:26:43;16.80;;;9.63;;
36551;SDS011;22559;54.176;12.102;2022-10-26T05:29:09;15.87;;;10.37;;
36551;SDS011;22559;54.176;12.102;2022-10-26T05:31:35;16.77;;;9.73;;
36551;SDS011;22559;54.176;12.102;2022-10-26T05:34:01;17.70;;;10.40;;
36551;SDS011;22559;54.176;12.102;2022-10-26T05:36:26;21.50;;;10.70;;
36551;SDS011;22559;54.176;12.102;2022-10-26T05:38:52;21.90;;;11.17;;
36551;SDS011;22559;54.176;12.102;2022-10-26T05:41:17;16.40;;;9.87;;
36551;SDS011;22559;54.176;12.102;2022-10-26T05:43:45;20.30;;;11.03;;
36551;SDS011;22559;54.176;12.102;2022-10-26T05:46:11;19.13;;;10.50;;
36551;SDS011;22559;54.176;12.102;2022-10-26T05:48:37;18.20;;;10.77;;
36551;SDS011;22559;54.176;12.102;2022-10-26T05:51:03;15.83;;;10.27;;
36551;SDS011;22559;54.176;12.102;2022-10-26T05:53:28;19.37;;;10.03;;
36551;SDS011;22559;54.176;12.102;2022-10-26T05:55:54;19.63;;;11.00;;
36551;SDS011;22559;54.176;12.102;2022-10-26T05:58:21;24.00;;;11.10;;
36551;SDS011;22559;54.176;12.102;2022-10-26T06:01:01;24.50;;;11.47;;
36551;SDS011;22559;54.176;12.102;2022-10-26T06:06:05;23.13;;;11.80;;
36551;SDS011;22559;54.176;12.102;2022-10-26T06:08:31;23.97;;;11.93;;
36551;SDS011;22559;54.176;12.102;2022-10-26T06:10:57;23.10;;;11.33;;
36551;SDS011;22559;54.176;12.102;2022-10-26T06:13:23;19.50;;;10.93;;
36551;SDS011;22559;54.176;12.102;2022-10-26T06:19:00;22.23;;;10.67;;
36551;SDS011;22559;54.176;12.102;2022-10-26T06:26:52;20.93;;;10.07;;
36551;SDS011;22559;54.176;12.102;2022-10-26T06:29:55;18.47;;;10.23;;
36551;SDS011;22559;54.176;12.102;2022-10-26T06:32:27;21.13;;;10.07;;
36551;SDS011;22559;54.176;12.102;2022-10-26T06:37:59;16.73;;;10.10;;
36551;SDS011;22559;54.176;12.102;2022-10-26T06:40:29;17.30;;;9.97;;
36551;SDS011;22559;54.176;12.102;2022-10-26T06:42:57;19.03;;;10.10;;
36551;SDS011;22559;54.176;12.102;2022-10-26T06:45:23;21.23;;;10.77;;
36551;SDS011;22559;54.176;12.102;2022-10-26T06:50:24;19.57;;;10.37;;
36551;SDS011;22559;54.176;12.102;2022-10-26T06:53:01;16.13;;;10.90;;
36551;SDS011;22559;54.176;12.102;2022-10-26T06:55:38;14.73;;;9.70;;
36551;SDS011;22559;54.176;12.102;2022-10-26T06:58:10;17.40;;;10.97;;
36551;SDS011;22559;54.176;12.102;2022-10-26T07:00:39;17.60;;;10.33;;
36551;SDS011;22559;54.176;12.102;2022-10-26T07:03:06;19.17;;;11.97;;
36551;SDS011;22559;54.176;12.102;2022-10-26T07:05:32;22.07;;;11.67;;
36551;SDS011;22559;54.176;12.102;2022-10-26T07:07:58;19.20;;;11.13;;
36551;SDS011;22559;54.176;12.102;2022-10-26T07:10:23;20.17;;;10.67;;
36551;SDS011;22559;54.176;12.102;2022-10-26T07:12:49;23.00;;;10.57;;
36551;SDS011;22559;54.176;12.102;2022-10-26T07:15:15;17.93;;;10.40;;
36551;SDS011;22559;54.176;12.102;2022-10-26T07:17:41;18.67;;;10.80;;
36551;SDS011;22559;54.176;12.102;2022-10-26T07:20:08;19.43;;;10.70;;
36551;SDS011;22559;54.176;12.102;2022-10-26T07:22:34;18.33;;;11.27;;
36551;SDS011;22559;54.176;12.102;2022-10-26T07:25:01;19.87;;;11.10;;
36551;SDS011;22559;54.176;12.102;2022-10-26T07:27:27;16.10;;;10.07;;
36551;SDS011;22559;54.176;12.102;2022-10-26T07:29:54;16.07;;;10.33;;
36551;SDS011;22559;54.176;12.102;2022-10-26T07:32:19;17.93;;;10.40;;
36551;SDS011;22559;54.176;12.102;2022-10-26T07:34:45;18.70;;;10.30;;
36551;SDS011;22559;54.176;12.102;2022-10-26T07:37:10;19.97;;;10.73;;
36551;SDS011;22559;54.176;12.102;2022-10-26T07:39:36;17.23;;;10.57;;
36551;SDS011;22559;54.176;12.102;2022-10-26T07:42:01;17.23;;;10.70;;
36551;SDS011;22559;54.176;12.102;2022-10-26T07:44:27;18.30;;;10.80;;
36551;SDS011;22559;54.176;12.102;2022-10-26T07:46:53;21.00;;;10.67;;
36551;SDS011;22559;54.176;12.102;2022-10-26T07:49:18;16.70;;;10.57;;
36551;SDS011;22559;54.176;12.102;2022-10-26T07:51:44;18.63;;;11.27;;
36551;SDS011;22559;54.176;12.102;2022-10-26T07:54:09;18.53;;;10.77;;
36551;SDS011;22559;54.176;12.102;2022-10-26T07:56:35;15.90;;;10.90;;
36551;SDS011;22559;54.176;12.102;2022-10-26T07:59:01;16.77;;;11.53;;
36551;SDS011;22559;54.176;12.102;2022-10-26T08:01:26;16.87;;;11.27;;
36551;SDS011;22559;54.176;12.102;2022-10-26T08:03:52;20.93;;;11.77;;
36551;SDS011;22559;54.176;12.102;2022-10-26T08:06:19;20.30;;;11.30;;
36551;SDS011;22559;54.176;12.102;2022-10-26T08:08:48;17.97;;;11.47;;
36551;SDS011;22559;54.176;12.102;2022-10-26T08:11:14;18.27;;;11.77;;
36551;SDS011;22559;54.176;12.102;2022-10-26T08:13:40;17.33;;;11.37;;
36551;SDS011;22559;54.176;12.102;2022-10-26T08:16:06;17.93;;;10.37;;
36551;SDS011;22559;54.176;12.102;2022-10-26T08:18:32;16.30;;;10.37;;
36551;SDS011;22559;54.176;12.102;2022-10-26T08:21:02;14.30;;;9.93;;
36551;SDS011;22559;54.176;12.102;2022-10-26T08:23:33;17.53;;;10.50;;
36551;SDS011;22559;54.176;12.102;2022-10-26T08:25:59;15.20;;;10.93;;
36551;SDS011;22559;54.176;12.102;2022-10-26T08:28:25;18.90;;;11.17;;
36551;SDS011;22559;54.176;12.102;2022-10-26T08:30:51;16.10;;;11.20;;
36551;SDS011;22559;54.176;12.102;2022-10-26T08:33:17;17.40;;;11.00;;
36551;SDS011;22559;54.176;12.102;2022-10-26T08:35:43;17.03;;;11.07;;
36551;SDS011;22559;54.176;12.102;2022-10-26T08:38:08;19.73;;;11.87;;
36551;SDS011;22559;54.176;12.102;2022-10-26T08:40:35;18.63;;;10.77;;
36551;SDS011;22559;54.176;12.102;2022-10-26T08:43:04;19.97;;;11.47;;
36551;SDS011;22559;54.176;12.102;2022-10-26T08:45:40;17.73;;;10.43;;
36551;SDS011;22559;54.176;12.102;2022-10-26T08:48:22;19.97;;;10.70;;
36551;SDS011;22559;54.176;12.102;2022-10-26T08:50:57;15.47;;;9.83;;
36551;SDS011;22559;54.176;12.102;2022-10-26T08:56:16;16.77;;;9.63;;
36551;SDS011;22559;54.176;12.102;2022-10-26T08:58:52;15.43;;;9.90;;
36551;SDS011;22559;54.176;12.102;2022-10-26T09:01:20;15.00;;;10.70;;
36551;SDS011;22559;54.176;12.102;2022-10-26T09:03:46;17.50;;;10.00;;
36551;SDS011;22559;54.176;12.102;2022-10-26T09:06:15;16.67;;;9.83;;
36551;SDS011;22559;54.176;12.102;2022-10-26T09:09:08;17.17;;;10.63;;
36551;SDS011;22559;54.176;12.102;2022-10-26T09:11:54;14.20;;;10.17;;
36551;SDS011;22559;54.176;12.102;2022-10-26T09:17:32;14.20;;;9.57;;
36551;SDS011;22559;54.176;12.102;2022-10-26T09:25:39;13.20;;;9.70;;
36551;SDS011;22559;54.176;12.102;2022-10-26T09:28:06;16.60;;;10.13;;
36551;SDS011;22559;54.176;12.102;2022-10-26T09:30:40;14.85;;;9.70;;
36551;SDS011;22559;54.176;12.102;2022-10-26T09:33:11;15.43;;;9.38;;
36551;SDS011;22559;54.176;12.102;2022-10-26T09:38:41;15.75;;;9.88;;
36551;SDS011;22559;54.176;12.102;2022-10-26T09:43:52;15.57;;;10.15;;
36551;SDS011;22559;54.176;12.102;2022-10-26T09:46:24;14.18;;;9.65;;
36551;SDS011;22559;54.176;12.102;2022-10-26T09:49:00;17.35;;;11.18;;
36551;SDS011;22559;54.176;12.102;2022-10-26T09:51:31;17.50;;;11.23;;
36551;SDS011;22559;54.176;12.102;2022-10-26T09:54:04;15.52;;;11.05;;
36551;SDS011;22559;54.176;12.102;2022-10-26T09:56:37;19.67;;;10.68;;
36551;SDS011;22559;54.176;12.102;2022-10-26T09:59:04;15.75;;;11.43;;
36551;SDS011;22559;54.176;12.102;2022-10-26T10:01:31;17.02;;;10.93;;
36551;SDS011;22559;54.176;12.102;2022-10-26T10:06:46;18.30;;;10.38;;
36551;SDS011;22559;54.176;12.102;2022-10-26T10:09:23;18.25;;;10.88;;
36551;SDS011;22559;54.176;12.102;2022-10-26T10:11:58;16.15;;;10.32;;
36551;SDS011;22559;54.176;12.102;2022-10-26T10:14:59;16.20;;;9.30;;
36551;SDS011;22559;54.176;12.102;2022-10-26T10:17:20;19.35;;;9.95;;
36551;SDS011;22559;54.176;12.102;2022-10-26T10:19:47;14.60;;;9.60;;
36551;SDS011;22559;54.176;12.102;2022-10-26T10:24:39;14.07;;;9.68;;
36551;SDS011;22559;54.176;12.102;2022-10-26T10:29:47;11.98;;;9.00;;
36551;SDS011;22559;54.176;12.102;2022-10-26T10:34:47;14.25;;;8.10;;
36551;SDS011;22559;54.176;12.102;2022-10-26T10:39:48;8.98;;;7.47;;
36551;SDS011;22559;54.176;12.102;2022-10-26T10:42:19;13.95;;;7.22;;
36551;SDS011;22559;54.176;12.102;2022-10-26T10:44:49;11.20;;;8.32;;
36551;SDS011;22559;54.176;12.102;2022-10-26T10:47:21;15.45;;;7.78;;
36551;SDS011;22559;54.176;12.102;2022-10-26T10:49:53;13.75;;;8.07;;
36551;SDS011;22559;54.176;12.102;2022-10-26T10:52:28;11.85;;;7.75;;
36551;SDS011;22559;54.176;12.102;2022-10-26T10:55:09;15.05;;;8.85;;
36551;SDS011;22559;54.176;12.102;2022-10-26T10:57:43;13.27;;;8.40;;
36551;SDS011;22559;54.176;12.102;2022-10-26T11:00:25;11.45;;;8.27;;
36551;SDS011;22559;54.176;12.102;2022-10-26T11:05:59;12.30;;;8.05;;
36551;SDS011;22559;54.176;12.102;2022-10-26T11:11:25;11.32;;;8.57;;
36551;SDS011;22559;54.176;12.102;2022-10-26T11:14:09;10.50;;;7.70;;
36551;SDS011;22559;54.176;12.102;2022-10-26T11:16:42;11.07;;;7.80;;
36551;SDS011;22559;54.176;12.102;2022-10-26T11:21:52;11.73;;;8.30;;
36551;SDS011;22559;54.176;12.102;2022-10-26T11:26:57;9.50;;;6.57;;
36551;SDS011;22559;54.176;12.102;2022-10-26T11:29:46;10.15;;;6.55;;
36551;SDS011;22559;54.176;12.102;2022-10-26T11:32:31;11.25;;;6.78;;
36551;SDS011;22559;54.176;12.102;2022-10-26T11:35:04;9.35;;;6.40;;
36551;SDS011;22559;54.176;12.102;2022-10-26T11:37:55;8.00;;;6.30;;
36551;SDS011;22559;54.176;12.102;2022-10-26T11:43:13;9.68;;;6.15;;
36551;SDS011;22559;54.176;12.102;2022-10-26T11:46:01;8.18;;;5.72;;
36551;SDS011;22559;54.176;12.102;2022-10-26T11:48:31;10.35;;;5.88;;
36551;SDS011;22559;54.176;12.102;2022-10-26T11:51:06;8.98;;;6.00;;
36551;SDS011;22559;54.176;12.102;2022-10-26T11:53:40;7.68;;;5.68;;
36551;SDS011;22559;54.176;12.102;2022-10-26T11:56:10;8.30;;;6.13;;
36551;SDS011;22559;54.176;12.102;2022-10-26T11:59:08;8.07;;;6.07;;
36551;SDS011;22559;54.176;12.102;2022-10-26T12:01:45;5.57;;;4.80;;
36551;SDS011;22559;54.176;12.102;2022-10-26T12:04:15;7.88;;;5.60;;
36551;SDS011;22559;54.176;12.102;2022-10-26T12:06:41;8.57;;;5.60;;
36551;SDS011;22559;54.176;12.102;2022-10-26T12:09:14;6.82;;;5.10;;
36551;SDS011;22559;54.176;12.102;2022-10-26T12:11:49;7.65;;;5.18;;
36551;SDS011;22559;54.176;12.102;2022-10-26T12:19:40;10.00;;;6.00;;
36551;SDS011;22559;54.176;12.102;2022-10-26T12:22:14;8.85;;;6.55;;
36551;SDS011;22559;54.176;12.102;2022-10-26T12:24:42;9.20;;;6.00;;
36551;SDS011;22559;54.176;12.102;2022-10-26T12:37:53;9.68;;;5.68;;
36551;SDS011;22559;54.176;12.102;2022-10-26T12:45:40;8.00;;;4.47;;
36551;SDS011;22559;54.176;12.102;2022-10-26T12:48:22;5.57;;;3.97;;
36551;SDS011;22559;54.176;12.102;2022-10-26T12:51:39;3.70;;;3.40;;
36551;SDS011;22559;54.176;12.102;2022-10-26T12:56:34;5.63;;;4.07;;
36551;SDS011;22559;54.176;12.102;2022-10-26T13:08:01;5.53;;;4.00;;
36551;SDS011;22559;54.176;12.102;2022-10-26T13:10:28;5.18;;;3.60;;
36551;SDS011;22559;54.176;12.102;2022-10-26T13:12:55;4.25;;;3.80;;
36551;SDS011;22559;54.176;12.102;2022-10-26T13:15:27;5.75;;;4.15;;
36551;SDS011;22559;54.176;12.102;2022-10-26T13:17:55;5.32;;;3.10;;
36551;SDS011;22559;54.176;12.102;2022-10-26T13:20:21;7.47;;;3.10;;
36551;SDS011;22559;54.176;12.102;2022-10-26T13:22:47;4.82;;;3.40;;
36551;SDS011;22559;54.176;12.102;2022-10-26T13:25:23;6.32;;;3.55;;
36551;SDS011;22559;54.176;12.102;2022-10-26T13:27:59;4.03;;;3.50;;
36551;SDS011;22559;54.176;12.102;2022-10-26T13:32:58;5.28;;;3.15;;
36551;SDS011;22559;54.176;12.102;2022-10-26T13:35:26;3.40;;;3.10;;
36551;SDS011;22559;54.176;12.102;2022-10-26T13:37:53;3.78;;;2.70;;
36551;SDS011;22559;54.176;12.102;2022-10-26T13:40:24;6.75;;;3.00;;
36551;SDS011;22559;54.176;12.102;2022-10-26T13:42:55;5.25;;;3.25;;
36551;SDS011;22559;54.176;12.102;2022-10-26T13:45:29;4.35;;;3.13;;
36551;SDS011;22559;54.176;12.102;2022-10-26T13:50:34;4.72;;;3.20;;
36551;SDS011;22559;54.176;12.102;2022-10-26T13:53:14;4.43;;;3.40;;
36551;SDS011;22559;54.176;12.102;2022-10-26T13:55:50;4.53;;;3.20;;
36551;SDS011;22559;54.176;12.102;2022-10-26T14:03:37;4.45;;;3.00;;
36551;SDS011;22559;54.176;12.102;2022-10-26T14:06:11;3.67;;;3.42;;
36551;SDS011;22559;54.176;12.102;2022-10-26T14:08:59;5.25;;;3.13;;
36551;SDS011;22559;54.176;12.102;2022-10-26T14:11:32;3.55;;;3.20;;
36551;SDS011;22559;54.176;12.102;2022-10-26T14:14:00;5.35;;;3.30;;
36551;SDS011;22559;54.176;12.102;2022-10-26T14:16:28;4.32;;;2.97;;
36551;SDS011;22559;54.176;12.102;2022-10-26T14:18:55;3.45;;;2.92;;
36551;SDS011;22559;54.176;12.102;2022-10-26T14:21:21;3.20;;;2.97;;
36551;SDS011;22559;54.176;12.102;2022-10-26T14:23:48;4.45;;;2.70;;
36551;SDS011;22559;54.176;12.102;2022-10-26T14:26:20;5.70;;;3.05;;
36551;SDS011;22559;54.176;12.102;2022-10-26T14:28:56;4.85;;;2.90;;
36551;SDS011;22559;54.176;12.102;2022-10-26T14:31:25;3.90;;;2.85;;
36551;SDS011;22559;54.176;12.102;2022-10-26T14:33:53;4.78;;;2.72;;
36551;SDS011;22559;54.176;12.102;2022-10-26T14:36:20;6.45;;;3.15;;
36551;SDS011;22559;54.176;12.102;2022-10-26T14:38:53;5.18;;;2.90;;
36551;SDS011;22559;54.176;12.102;2022-10-26T14:41:23;3.40;;;2.88;;
36551;SDS011;22559;54.176;12.102;2022-10-26T14:43:50;7.47;;;3.30;;
36551;SDS011;22559;54.176;12.102;2022-10-26T14:46:18;7.68;;;3.17;;
36551;SDS011;22559;54.176;12.102;2022-10-26T14:48:56;5.75;;;3.20;;
36551;SDS011;22559;54.176;12.102;2022-10-26T14:51:28;4.03;;;3.13;;
36551;SDS011;22559;54.176;12.102;2022-10-26T14:53:58;3.97;;;3.53;;
36551;SDS011;22559;54.176;12.102;2022-10-26T14:56:29;4.03;;;3.38;;
36551;SDS011;22559;54.176;12.102;2022-10-26T14:58:55;6.18;;;3.80;;
36551;SDS011;22559;54.176;12.102;2022-10-26T15:04:05;5.93;;;3.85;;
36551;SDS011;22559;54.176;12.102;2022-10-26T15:06:36;3.47;;;3.17;;
36551;SDS011;22559;54.176;12.102;2022-10-26T15:09:27;4.57;;;3.20;;
36551;SDS011;22559;54.176;12.102;2022-10-26T15:11:56;7.25;;;3.40;;
36551;SDS011;22559;54.176;12.102;2022-10-26T15:14:22;9.50;;;4.22;;
36551;SDS011;22559;54.176;12.102;2022-10-26T15:16:52;7.85;;;4.50;;
36551;SDS011;22559;54.176;12.102;2022-10-26T15:19:19;6.03;;;4.00;;
36551;SDS011;22559;54.176;12.102;2022-10-26T15:21:47;5.78;;;3.42;;
36551;SDS011;22559;54.176;12.102;2022-10-26T15:24:25;8.52;;;4.28;;
36551;SDS011;22559;54.176;12.102;2022-10-26T15:27:02;6.45;;;3.40;;
36551;SDS011;22559;54.176;12.102;2022-10-26T15:29:43;5.80;;;3.40;;
36551;SDS011;22559;54.176;12.102;2022-10-26T15:34:48;3.58;;;3.08;;
36551;SDS011;22559;54.176;12.102;2022-10-26T15:37:14;6.70;;;3.28;;
36551;SDS011;22559;54.176;12.102;2022-10-26T15:39:40;3.92;;;3.03;;
36551;SDS011;22559;54.176;12.102;2022-10-26T15:42:08;3.83;;;2.88;;
36551;SDS011;22559;54.176;12.102;2022-10-26T15:44:37;5.72;;;3.20;;
36551;SDS011;22559;54.176;12.102;2022-10-26T15:47:03;4.28;;;3.17;;
36551;SDS011;22559;54.176;12.102;2022-10-26T15:49:28;5.68;;;3.35;;
36551;SDS011;22559;54.176;12.102;2022-10-26T15:51:54;5.60;;;3.03;;
36551;SDS011;22559;54.176;12.102;2022-10-26T15:54:20;7.53;;;3.67;;
36551;SDS011;22559;54.176;12.102;2022-10-26T15:56:45;5.50;;;3.00;;
36551;SDS011;22559;54.176;12.102;2022-10-26T15:59:17;5.22;;;3.20;;
36551;SDS011;22559;54.176;12.102;2022-10-26T16:01:44;6.57;;;4.43;;
36551;SDS011;22559;54.176;12.102;2022-10-26T16:04:10;6.93;;;3.63;;
36551;SDS011;22559;54.176;12.102;2022-10-26T16:06:36;5.18;;;3.60;;
36551;SDS011;22559;54.176;12.102;2022-10-26T16:09:04;6.45;;;3.60;;
36551;SDS011;22559;54.176;12.102;2022-10-26T16:11:31;7.38;;;3.47;;
36551;SDS011;22559;54.176;12.102;2022-10-26T16:13:57;7.75;;;3.65;;
36551;SDS011;22559;54.176;12.102;2022-10-26T16:16:23;7.50;;;3.67;;
36551;SDS011;22559;54.176;12.102;2022-10-26T16:18:52;5.13;;;3.70;;
36551;SDS011;22559;54.176;12.102;2022-10-26T16:21:19;7.25;;;4.03;;
36551;SDS011;22559;54.176;12.102;2022-10-26T16:23:47;10.00;;;4.10;;
36551;SDS011;22559;54.176;12.102;2022-10-26T16:26:14;6.57;;;3.97;;
36551;SDS011;22559;54.176;12.102;2022-10-26T16:28:39;7.22;;;3.95;;
36551;SDS011;22559;54.176;12.102;2022-10-26T16:31:06;6.43;;;3.65;;
36551;SDS011;22559;54.176;12.102;2022-10-26T16:33:35;6.90;;;3.92;;
36551;SDS011;22559;54.176;12.102;2022-10-26T16:36:00;5.60;;;3.53;;
36551;SDS011;22559;54.176;12.102;2022-10-26T16:38:27;4.15;;;3.50;;
36551;SDS011;22559;54.176;12.102;2022-10-26T16:43:31;8.65;;;3.80;;
36551;SDS011;22559;54.176;12.102;2022-10-26T16:45:58;5.00;;;3.78;;
36551;SDS011;22559;54.176;12.102;2022-10-26T16:48:24;7.43;;;4.03;;
36551;SDS011;22559;54.176;12.102;2022-10-26T16:50:50;8.43;;;4.13;;
36551;SDS011;22559;54.176;12.102;2022-10-26T16:53:15;6.10;;;3.88;;
36551;SDS011;22559;54.176;12.102;2022-10-26T16:55:41;9.15;;;3.88;;
36551;SDS011;22559;54.176;12.102;2022-10-26T16:58:08;5.60;;;4.28;;